createdAt,value
2023-05-04T00:00:35.617Z,16.25
2023-05-04T00:03:02.245Z,16.31
2023-05-04T00:05:28.917Z,16.35
2023-05-04T00:07:55.471Z,16.39
2023-05-04T00:10:22.146Z,16.48
2023-05-04T00:12:48.769Z,16.59
2023-05-04T00:15:15.594Z,16.50
2023-05-04T00:17:42.178Z,16.53
2023-05-04T00:20:09.267Z,16.57
2023-05-04T00:22:44.958Z,16.65
2023-05-04T00:25:33.343Z,16.73
2023-05-04T00:27:59.929Z,16.77
2023-05-04T00:30:26.522Z,16.72
2023-05-04T00:32:53.118Z,16.81
2023-05-04T00:35:19.678Z,16.90
2023-05-04T00:37:46.493Z,16.93
2023-05-04T00:40:13.266Z,16.96
2023-05-04T00:42:39.795Z,16.96
2023-05-04T00:45:06.811Z,16.99
2023-05-04T00:47:33.745Z,17.02
2023-05-04T00:50:00.549Z,17.05
2023-05-04T00:52:27.866Z,17.09
2023-05-04T00:54:54.737Z,17.09
2023-05-04T00:57:21.740Z,17.00
2023-05-04T00:59:48.307Z,16.92
2023-05-04T01:02:27.958Z,16.86
2023-05-04T01:05:20.156Z,16.94
2023-05-04T01:25:44.953Z,16.87
2023-05-04T01:28:35.837Z,16.88
2023-05-04T01:31:03.541Z,16.81
2023-05-04T01:33:31.699Z,16.80
2023-05-04T01:41:30.172Z,16.64
2023-05-04T01:43:57.826Z,16.64
2023-05-04T01:46:24.414Z,16.64
2023-05-04T01:48:51.039Z,16.65
2023-05-04T01:51:17.626Z,16.68
2023-05-04T01:53:44.188Z,16.67
2023-05-04T01:56:10.969Z,16.71
2023-05-04T01:58:37.548Z,16.70
2023-05-04T02:01:05.665Z,16.72
2023-05-04T02:03:32.407Z,16.68
2023-05-04T02:05:59.005Z,16.70
2023-05-04T02:08:26.387Z,16.70
2023-05-04T02:10:59.070Z,16.70
2023-05-04T02:13:53.552Z,16.70
2023-05-04T02:16:20.119Z,16.71
2023-05-04T02:18:46.828Z,16.63
2023-05-04T02:21:13.738Z,16.68
2023-05-04T02:23:40.309Z,16.58
2023-05-04T02:26:06.975Z,16.35
2023-05-04T02:28:33.562Z,16.16
2023-05-04T02:31:00.124Z,16.14
2023-05-04T02:33:26.709Z,16.06
2023-05-04T02:35:53.220Z,16.11
2023-05-04T02:38:19.802Z,16.07
2023-05-04T02:40:55.774Z,16.15
2023-05-04T02:43:37.683Z,16.23
2023-05-04T02:46:04.618Z,16.25
2023-05-04T02:48:31.194Z,16.04
2023-05-04T02:50:57.921Z,15.87
2023-05-04T02:53:24.460Z,15.76
2023-05-04T02:55:51.056Z,15.68
2023-05-04T02:58:17.600Z,15.79
2023-05-04T03:00:55.640Z,15.82
2023-05-04T03:03:22.236Z,15.70
2023-05-04T03:05:48.800Z,15.72
2023-05-04T03:08:15.802Z,15.70
2023-05-04T03:10:54.698Z,15.61
2023-05-04T03:13:33.228Z,15.51
2023-05-04T03:15:59.897Z,15.45
2023-05-04T03:18:26.520Z,15.38
2023-05-04T03:20:53.163Z,15.33
2023-05-04T03:23:19.744Z,15.32
2023-05-04T03:25:46.264Z,15.26
2023-05-04T03:28:12.960Z,15.24
2023-05-04T03:30:39.547Z,15.29
2023-05-04T03:33:06.215Z,15.38
2023-05-04T03:35:32.905Z,15.47
2023-05-04T03:37:59.936Z,15.55
2023-05-04T03:40:27.102Z,15.57
2023-05-04T03:43:08.959Z,15.51
2023-05-04T03:48:10.985Z,15.48
2023-05-04T03:50:37.542Z,15.46
2023-05-04T03:53:05.759Z,15.48
2023-05-04T03:55:32.347Z,15.48
2023-05-04T03:57:58.953Z,15.49
2023-05-04T04:00:25.510Z,15.52
2023-05-04T04:02:52.147Z,15.51
2023-05-04T04:05:18.810Z,15.52
2023-05-04T04:07:45.589Z,15.47
2023-05-04T04:10:32.126Z,15.41
2023-05-04T04:13:04.167Z,15.44
2023-05-04T04:41:12.323Z,15.75
2023-05-04T04:43:39.132Z,15.76
2023-05-04T04:46:49.444Z,15.78
2023-05-04T04:49:17.869Z,15.83
2023-05-04T04:51:44.669Z,15.87
2023-05-04T04:54:11.532Z,15.95
2023-05-04T04:56:40.617Z,15.86
2023-05-04T04:59:07.412Z,15.87
2023-05-04T05:01:34.092Z,15.97
2023-05-04T05:04:00.775Z,15.97
2023-05-04T05:06:27.287Z,16.01
2023-05-04T05:08:53.865Z,16.00
2023-05-04T05:11:20.992Z,16.02
2023-05-04T05:13:47.510Z,15.92
2023-05-04T05:16:14.186Z,15.81
2023-05-04T05:18:41.122Z,15.77
2023-05-04T05:21:07.775Z,15.75
2023-05-04T05:23:35.638Z,15.77
2023-05-04T05:26:03.376Z,15.75
2023-05-04T05:28:30.416Z,15.88
2023-05-04T05:30:57.036Z,15.92
2023-05-04T05:33:23.900Z,15.67
2023-05-04T05:35:50.475Z,15.80
2023-05-04T05:38:18.729Z,16.12
2023-05-04T05:40:45.310Z,16.10
2023-05-04T05:43:11.823Z,16.20
2023-05-04T05:45:38.366Z,16.04
2023-05-04T05:48:05.700Z,16.39
2023-05-04T05:50:32.341Z,16.29
2023-05-04T05:52:58.879Z,16.48
2023-05-04T05:55:25.437Z,16.72
2023-05-04T05:57:52.173Z,16.92
2023-05-04T06:00:18.932Z,16.99
2023-05-04T06:02:45.591Z,17.11
2023-05-04T06:05:18.266Z,17.04
2023-05-04T06:07:44.808Z,16.98
2023-05-04T06:10:11.365Z,16.74
2023-05-04T06:12:37.935Z,16.85
2023-05-04T06:15:14.482Z,16.96
2023-05-04T06:20:45.260Z,17.04
2023-05-04T06:23:11.985Z,17.44
2023-05-04T06:25:38.579Z,17.44
2023-05-04T06:28:05.482Z,17.75
2023-05-04T06:30:32.087Z,17.36
2023-05-04T06:32:58.693Z,17.72
2023-05-04T06:35:25.791Z,17.92
2023-05-04T06:37:52.404Z,17.93
2023-05-04T06:40:19.029Z,17.74
2023-05-04T06:42:45.934Z,17.76
2023-05-04T06:45:12.708Z,18.09
2023-05-04T06:47:39.322Z,18.17
2023-05-04T06:50:10.059Z,18.55
2023-05-04T06:52:41.110Z,18.54
2023-05-04T06:55:16.943Z,18.86
2023-05-04T06:57:43.556Z,18.83
2023-05-04T07:00:10.718Z,18.56
2023-05-04T07:02:37.329Z,18.54
2023-05-04T07:05:04.114Z,18.63
2023-05-04T07:07:30.773Z,18.82
2023-05-04T07:09:57.519Z,18.64
2023-05-04T07:12:24.123Z,18.95
2023-05-04T07:14:50.713Z,19.04
2023-05-04T07:17:17.305Z,18.78
2023-05-04T07:19:43.885Z,19.27
2023-05-04T07:22:10.499Z,19.30
2023-05-04T07:24:37.152Z,18.93
2023-05-04T07:27:03.807Z,19.42
2023-05-04T07:29:30.670Z,19.37
2023-05-04T07:31:57.279Z,19.34
2023-05-04T07:34:33.889Z,19.65
2023-05-04T07:37:05.433Z,19.47
2023-05-04T07:39:36.266Z,19.30
2023-05-04T07:42:04.147Z,19.31
2023-05-04T07:44:31.817Z,19.63
2023-05-04T07:46:59.131Z,19.61
2023-05-04T07:49:26.197Z,19.53
2023-05-04T07:51:52.970Z,19.96
2023-05-04T07:54:21.330Z,20.11
2023-05-04T07:56:49.108Z,19.99
2023-05-04T07:59:18.396Z,20.00
2023-05-04T08:01:45.176Z,20.05
2023-05-04T08:04:33.481Z,20.13
2023-05-04T08:07:00.124Z,20.04
2023-05-04T08:09:26.739Z,20.22
2023-05-04T08:11:53.664Z,20.51
2023-05-04T08:20:53.063Z,20.01
2023-05-04T08:23:19.641Z,20.38
2023-05-04T08:25:46.192Z,20.21
2023-05-04T08:28:12.753Z,20.25
2023-05-04T08:30:39.314Z,20.45
2023-05-04T08:33:17.592Z,20.73
2023-05-04T08:35:44.135Z,20.69
2023-05-04T08:38:10.894Z,20.76
2023-05-04T08:40:41.548Z,20.87
2023-05-04T08:43:17.229Z,21.06
2023-05-04T08:46:12.464Z,20.79
2023-05-04T08:51:14.832Z,21.43
2023-05-04T08:53:46.063Z,21.63
2023-05-04T08:56:14.027Z,21.72
2023-05-04T08:58:52.054Z,21.32
2023-05-04T09:01:20.230Z,21.09
2023-05-04T09:03:47.750Z,21.28
2023-05-04T09:06:15.293Z,21.74
2023-05-04T09:08:42.441Z,21.86
2023-05-04T09:11:09.373Z,22.18
2023-05-04T09:13:36.613Z,22.12
2023-05-04T09:16:04.239Z,22.34
2023-05-04T09:18:41.427Z,22.35
2023-05-04T09:21:08.193Z,22.59
2023-05-04T09:23:55.311Z,21.89
2023-05-04T09:26:32.293Z,22.37
2023-05-04T09:29:15.521Z,22.18
2023-05-04T09:31:47.291Z,22.26
2023-05-04T09:34:14.997Z,22.01
2023-05-04T09:36:44.903Z,22.08
2023-05-04T09:39:15.973Z,22.31
2023-05-04T09:41:42.757Z,22.56
2023-05-04T09:44:23.139Z,22.23
2023-05-04T09:46:55.457Z,22.41
2023-05-04T09:49:36.135Z,22.35
2023-05-04T09:52:05.212Z,22.66
2023-05-04T09:54:35.388Z,22.92
2023-05-04T09:57:15.542Z,22.85
2023-05-04T09:59:43.158Z,22.59
2023-05-04T10:02:22.115Z,22.69
2023-05-04T10:05:10.546Z,22.18
2023-05-04T10:07:49.861Z,22.47
2023-05-04T10:10:16.610Z,22.33
2023-05-04T10:12:44.876Z,22.81
2023-05-04T10:15:12.290Z,22.64
2023-05-04T10:17:51.290Z,23.14
2023-05-04T10:20:49.002Z,23.26
2023-05-04T10:23:42.269Z,23.18
2023-05-04T10:26:24.163Z,23.18
2023-05-04T10:29:00.917Z,23.57
2023-05-04T10:31:43.456Z,23.57
2023-05-04T10:34:11.200Z,23.63
2023-05-04T10:36:44.109Z,23.46
2023-05-04T10:39:33.173Z,23.09
2023-05-04T10:44:57.053Z,23.38
2023-05-04T10:47:34.332Z,23.35
2023-05-04T10:50:05.598Z,23.14
2023-05-04T10:52:33.250Z,23.39
2023-05-04T10:55:01.883Z,23.49
2023-05-04T10:57:29.373Z,23.54
2023-05-04T10:59:57.844Z,23.53
2023-05-04T11:02:26.074Z,23.48
2023-05-04T11:05:09.489Z,23.37
2023-05-04T11:07:40.085Z,23.12
2023-05-04T11:10:09.788Z,23.25
2023-05-04T11:12:38.164Z,23.35
2023-05-04T11:15:10.944Z,23.24
2023-05-04T11:17:47.509Z,23.19
2023-05-04T11:20:27.293Z,23.18
2023-05-04T11:22:54.921Z,23.19
2023-05-04T11:25:28.777Z,23.32
2023-05-04T11:27:56.121Z,23.46
2023-05-04T11:30:30.705Z,23.40
2023-05-04T11:32:59.302Z,23.34
2023-05-04T11:35:26.342Z,23.36
2023-05-04T11:37:53.688Z,23.42
2023-05-04T11:40:23.651Z,23.43
2023-05-04T11:43:04.568Z,23.40
2023-05-04T11:45:44.380Z,23.49
2023-05-04T11:48:16.637Z,23.46
2023-05-04T11:50:47.799Z,23.56
2023-05-04T11:53:14.384Z,23.46
2023-05-04T11:55:42.031Z,23.59
2023-05-04T11:58:10.631Z,23.64
2023-05-04T12:00:45.383Z,23.64
2023-05-04T12:03:14.394Z,23.66
2023-05-04T12:05:48.523Z,23.55
2023-05-04T12:08:35.232Z,23.18
2023-05-04T12:11:20.402Z,23.53
2023-05-04T12:13:49.237Z,23.60
2023-05-04T12:16:17.006Z,23.71
2023-05-04T12:18:45.417Z,23.75
2023-05-04T12:21:17.707Z,23.71
2023-05-04T12:23:45.629Z,23.83
2023-05-04T12:26:13.132Z,23.79
2023-05-04T12:28:41.983Z,23.79
2023-05-04T12:31:14.881Z,23.64
2023-05-04T12:33:41.861Z,23.32
2023-05-04T12:36:08.735Z,23.21
2023-05-04T12:38:35.250Z,23.13
2023-05-04T12:41:06.171Z,23.31
2023-05-04T12:43:33.680Z,23.11
2023-05-04T12:46:00.429Z,23.08
2023-05-04T12:48:29.027Z,23.26
2023-05-04T12:50:56.097Z,23.45
2023-05-04T12:53:25.680Z,23.58
2023-05-04T12:55:52.815Z,23.73
2023-05-04T12:58:19.480Z,23.64
2023-05-04T13:00:46.481Z,23.48
2023-05-04T13:03:13.769Z,23.36
2023-05-04T13:05:40.441Z,23.46
2023-05-04T13:08:07.112Z,23.29
2023-05-04T13:10:33.663Z,23.33
2023-05-04T13:13:02.817Z,23.17
2023-05-04T13:15:29.753Z,23.21
2023-05-04T13:17:56.425Z,23.15
2023-05-04T13:20:22.972Z,22.60
2023-05-04T13:22:50.759Z,22.43
2023-05-04T13:25:17.437Z,22.20
2023-05-04T13:27:44.139Z,22.15
2023-05-04T13:30:11.972Z,22.20
2023-05-04T13:32:38.758Z,22.24
2023-05-04T13:35:06.159Z,22.27
2023-05-04T13:37:33.918Z,22.26
2023-05-04T13:40:01.672Z,22.26
2023-05-04T13:42:28.425Z,22.39
2023-05-04T13:44:55.087Z,22.45
2023-05-04T13:47:21.713Z,22.49
2023-05-04T13:49:49.174Z,22.57
2023-05-04T13:52:16.065Z,22.57
2023-05-04T13:54:42.756Z,22.52
2023-05-04T13:57:09.307Z,22.42
2023-05-04T13:59:35.861Z,22.33
2023-05-04T14:02:02.663Z,22.25
2023-05-04T14:04:30.248Z,22.21
2023-05-04T14:06:57.689Z,22.18
2023-05-04T14:09:25.937Z,22.28
2023-05-04T14:11:52.441Z,22.28
2023-05-04T14:14:19.436Z,22.34
2023-05-04T14:16:46.876Z,22.28
2023-05-04T14:19:13.478Z,22.24
2023-05-04T14:21:40.003Z,22.01
2023-05-04T14:24:06.573Z,21.87
2023-05-04T14:26:34.514Z,21.70
2023-05-04T14:29:01.156Z,21.66
2023-05-04T14:31:27.978Z,21.60
2023-05-04T14:33:56.744Z,21.67
2023-05-04T14:36:23.975Z,21.72
2023-05-04T14:38:50.523Z,21.63
2023-05-04T14:41:18.181Z,21.57
2023-05-04T14:43:47.818Z,21.51
2023-05-04T14:46:14.402Z,21.54
2023-05-04T14:48:41.261Z,21.53
2023-05-04T14:51:08.489Z,21.51
2023-05-04T14:53:37.043Z,21.47
2023-05-04T14:56:05.587Z,21.48
2023-05-04T14:58:32.148Z,21.39
2023-05-04T15:00:58.788Z,21.36
2023-05-04T15:03:26.036Z,21.34
2023-05-04T15:05:52.856Z,21.50
2023-05-04T15:08:19.502Z,21.39
2023-05-04T15:10:46.302Z,21.15
2023-05-04T15:13:15.972Z,21.18
2023-05-04T15:15:42.805Z,21.32
2023-05-04T15:18:10.427Z,21.26
2023-05-04T15:20:40.520Z,21.31
2023-05-04T15:23:13.070Z,21.43
2023-05-04T15:25:41.073Z,21.45
2023-05-04T15:28:12.001Z,21.61
2023-05-04T15:30:42.182Z,21.23
2023-05-04T15:33:09.101Z,21.32
2023-05-04T15:35:37.133Z,21.41
2023-05-04T15:38:04.048Z,21.62
2023-05-04T15:40:31.447Z,21.71
2023-05-04T15:42:58.015Z,21.72
2023-05-04T15:45:24.790Z,21.75
2023-05-04T15:47:56.394Z,21.59
2023-05-04T15:50:24.136Z,21.55
2023-05-04T15:52:50.693Z,21.59
2023-05-04T15:55:26.010Z,21.34
2023-05-04T15:57:54.040Z,21.28
2023-05-04T16:00:21.669Z,21.21
2023-05-04T16:02:48.588Z,21.33
2023-05-04T16:05:15.390Z,21.16
2023-05-04T16:07:42.144Z,20.95
2023-05-04T16:10:09.841Z,20.88
2023-05-04T16:12:36.855Z,21.12
2023-05-04T16:15:03.956Z,21.19
2023-05-04T16:17:34.991Z,21.21
2023-05-04T16:20:03.188Z,21.21
2023-05-04T16:22:30.323Z,20.95
2023-05-04T16:24:57.323Z,21.16
2023-05-04T16:27:26.680Z,21.19
2023-05-04T16:29:53.537Z,21.01
2023-05-04T16:32:20.619Z,21.10
2023-05-04T16:34:47.694Z,21.17
2023-05-04T16:37:14.353Z,21.10
2023-05-04T16:39:40.976Z,21.25
2023-05-04T16:42:07.573Z,21.07
2023-05-04T16:44:34.095Z,21.07
2023-05-04T16:47:00.807Z,21.12
2023-05-04T16:49:27.393Z,21.19
2023-05-04T16:51:55.265Z,21.14
2023-05-04T16:54:25.092Z,21.09
2023-05-04T16:56:52.327Z,21.12
2023-05-04T16:59:18.942Z,20.94
2023-05-04T17:01:46.195Z,20.71
2023-05-04T17:04:12.823Z,20.62
2023-05-04T17:06:39.429Z,20.55
2023-05-04T17:09:06.047Z,20.67
2023-05-04T17:11:32.651Z,20.61
2023-05-04T17:14:01.203Z,20.56
2023-05-04T17:16:27.903Z,20.71
2023-05-04T17:18:54.750Z,20.62
2023-05-04T17:21:21.352Z,20.70
2023-05-04T17:23:47.875Z,20.55
2023-05-04T17:26:14.430Z,20.68
2023-05-04T17:28:40.975Z,20.62
2023-05-04T17:31:11.462Z,20.39
2023-05-04T17:33:41.559Z,20.49
2023-05-04T17:36:11.149Z,20.40
2023-05-04T17:38:39.160Z,20.46
2023-05-04T17:41:06.054Z,20.44
2023-05-04T17:43:33.892Z,20.47
2023-05-04T17:46:00.549Z,20.51
2023-05-04T17:48:27.809Z,20.32
2023-05-04T17:50:54.388Z,20.32
2023-05-04T17:53:21.003Z,20.28
2023-05-04T17:55:47.760Z,20.20
2023-05-04T17:58:14.316Z,20.25
2023-05-04T18:00:40.933Z,20.16
2023-05-04T18:03:07.646Z,20.02
2023-05-04T18:05:34.285Z,19.99
2023-05-04T18:08:00.899Z,19.82
2023-05-04T18:10:27.555Z,19.76
2023-05-04T18:13:00.171Z,19.71
2023-05-04T18:15:26.959Z,19.58
2023-05-04T18:17:53.531Z,19.68
2023-05-04T18:20:20.363Z,19.58
2023-05-04T18:22:46.957Z,19.53
2023-05-04T18:25:15.320Z,19.39
2023-05-04T18:27:41.903Z,19.37
2023-05-04T18:30:09.536Z,19.31
2023-05-04T18:32:36.453Z,19.18
2023-05-04T18:35:03.414Z,19.29
2023-05-04T18:37:32.979Z,19.25
2023-05-04T18:39:59.662Z,19.21
2023-05-04T18:43:03.273Z,19.15
2023-05-04T18:48:39.020Z,19.06
2023-05-04T18:51:05.575Z,18.96
2023-05-04T18:53:32.132Z,18.86
2023-05-04T18:56:06.204Z,18.88
2023-05-04T18:58:33.152Z,18.97
2023-05-04T19:00:59.886Z,18.98
2023-05-04T19:03:26.804Z,18.91
2023-05-04T19:05:54.233Z,18.74
2023-05-04T19:08:21.589Z,18.71
2023-05-04T19:10:49.612Z,18.69
2023-05-04T19:13:17.055Z,18.72
2023-05-04T19:15:43.842Z,18.86
2023-05-04T19:18:10.663Z,18.78
2023-05-04T19:20:37.706Z,18.69
2023-05-04T19:23:04.475Z,18.58
2023-05-04T19:25:35.039Z,18.64
2023-05-04T19:28:08.274Z,18.68
2023-05-04T19:30:39.286Z,18.70
2023-05-04T19:33:06.877Z,18.45
2023-05-04T19:35:33.494Z,18.31
2023-05-04T19:38:01.749Z,18.23
2023-05-04T19:40:28.548Z,18.15
2023-05-04T19:42:55.215Z,18.11
2023-05-04T19:45:21.985Z,17.95
2023-05-04T19:47:50.300Z,17.88
2023-05-04T19:50:19.029Z,17.72
2023-05-04T19:52:45.657Z,17.60
2023-05-04T19:55:12.628Z,17.53
2023-05-04T19:57:39.284Z,17.53
2023-05-04T20:00:06.946Z,17.47
2023-05-04T20:02:35.030Z,17.39
2023-05-04T20:05:01.672Z,17.25
2023-05-04T20:07:28.261Z,17.25
2023-05-04T20:09:54.953Z,17.31
2023-05-04T20:12:26.619Z,17.10
2023-05-04T20:14:53.252Z,17.03
2023-05-04T20:17:19.813Z,17.06
2023-05-04T20:19:47.349Z,17.01
2023-05-04T20:33:14.854Z,16.59
2023-05-04T20:38:22.666Z,16.78
2023-05-04T20:40:50.466Z,16.83
2023-05-04T20:43:18.675Z,16.89
2023-05-04T20:45:45.347Z,16.90
2023-05-04T20:48:11.993Z,16.92
2023-05-04T20:50:40.021Z,16.96
2023-05-04T20:53:06.705Z,17.14
2023-05-04T20:55:33.302Z,17.24
2023-05-04T20:57:59.837Z,17.40
2023-05-04T21:00:28.476Z,17.39
2023-05-04T21:02:55.158Z,17.20
2023-05-04T21:05:21.847Z,17.20
2023-05-04T21:10:23.820Z,17.12
2023-05-04T21:12:50.435Z,17.07
2023-05-04T21:15:17.345Z,17.19
2023-05-04T21:17:43.952Z,17.24
2023-05-04T21:20:10.912Z,17.28
2023-05-04T21:23:40.488Z,17.31
2023-05-04T21:29:04.023Z,17.40
2023-05-04T21:47:51.645Z,17.60
2023-05-04T21:53:36.600Z,17.54
2023-05-04T21:56:08.466Z,17.51
2023-05-04T21:58:55.077Z,17.50
2023-05-04T22:01:21.768Z,17.46
2023-05-04T22:03:48.414Z,17.56
2023-05-04T22:06:15.445Z,17.70
2023-05-04T22:08:42.038Z,17.75
2023-05-04T22:11:28.354Z,17.60
2023-05-04T22:13:54.923Z,17.76
2023-05-04T22:16:21.597Z,17.61
2023-05-04T22:18:49.514Z,17.54
2023-05-04T22:22:05.787Z,17.54
2023-05-04T22:27:29.972Z,17.39
2023-05-04T22:29:57.445Z,17.38
2023-05-04T22:32:24.072Z,17.32
2023-05-04T22:34:50.598Z,17.45
2023-05-04T22:37:17.141Z,17.47
2023-05-04T22:39:43.702Z,17.33
2023-05-04T22:42:10.306Z,17.41
2023-05-04T22:44:36.884Z,17.44
2023-05-04T22:47:03.951Z,17.33
2023-05-04T22:49:30.518Z,16.99
2023-05-04T22:51:57.054Z,17.26
2023-05-04T22:57:19.571Z,16.75
2023-05-04T22:59:46.123Z,16.99
2023-05-04T23:02:14.498Z,17.02
2023-05-04T23:04:42.350Z,16.90
2023-05-04T23:07:09.232Z,16.88
2023-05-04T23:09:46.346Z,16.96
2023-05-04T23:12:37.928Z,17.04
2023-05-04T23:15:06.708Z,17.08
2023-05-04T23:17:34.293Z,17.12
2023-05-04T23:20:00.989Z,17.22
2023-05-04T23:22:27.891Z,17.19
2023-05-04T23:24:54.418Z,17.15
2023-05-04T23:27:20.964Z,17.05
2023-05-04T23:29:47.519Z,16.51
2023-05-04T23:32:14.041Z,16.70
2023-05-04T23:34:40.600Z,16.52
2023-05-04T23:37:07.337Z,16.68
2023-05-04T23:39:49.474Z,16.60
2023-05-04T23:42:41.031Z,16.69
2023-05-04T23:45:16.664Z,16.68
2023-05-04T23:47:45.384Z,16.69
2023-05-04T23:50:12.434Z,16.71
2023-05-04T23:52:39.313Z,16.72
2023-05-04T23:55:06.655Z,16.71
2023-05-04T23:57:33.307Z,16.73
2023-05-04T23:59:59.930Z,16.41
